Time;durP1;ratioP1;P1;durP2;ratioP2;P2;SDS_P1;SDS_P2;PMS_P1;PMS_P2;Temp;Humidity;BMP_temperature;BMP_pressure;BME280_temperature;BME280_humidity;BME280_pressure;Samples;Min_cycle;Max_cycle;Signal;HPM_P1;HPM_P2
2021/05/08 00:00:08;;;;;;;5.13;3.30;;;5.20;99.90;;;;;;5207861;28;20212;-67
2021/05/08 00:02:39;;;;;;;5.07;3.73;;;5.20;99.90;;;;;;5207395;28;20198;-69
2021/05/08 00:05:14;;;;;;;4.87;3.47;;;5.10;99.90;;;;;;5206921;28;20208;-66
2021/05/08 00:07:45;;;;;;;4.47;3.20;;;5.10;99.90;;;;;;5206831;28;20245;-69
2021/05/08 00:10:17;;;;;;;4.30;3.20;;;5.10;99.90;;;;;;5207235;28;20206;-66
2021/05/08 00:12:49;;;;;;;5.33;3.13;;;5.10;99.90;;;;;;5207317;28;20206;-70
2021/05/08 00:15:21;;;;;;;4.80;3.43;;;5.10;99.90;;;;;;5209709;28;20570;-73
2021/05/08 00:17:53;;;;;;;4.30;2.77;;;5.10;99.90;;;;;;5211375;28;20205;-67
2021/05/08 00:20:24;;;;;;;4.43;2.80;;;5.10;99.90;;;;;;5211447;28;20252;-69
2021/05/08 00:22:56;;;;;;;3.23;2.80;;;5.10;99.90;;;;;;5211322;28;20213;-68
2021/05/08 00:25:27;;;;;;;4.80;3.10;;;5.10;99.90;;;;;;5211186;28;20538;-64
2021/05/08 00:27:59;;;;;;;5.03;3.50;;;5.00;99.90;;;;;;5210809;28;20301;-67
2021/05/08 00:30:30;;;;;;;3.40;2.83;;;5.00;99.90;;;;;;5210829;28;20210;-68
2021/05/08 00:33:01;;;;;;;3.17;2.73;;;4.90;99.90;;;;;;5210531;28;20210;-67
2021/05/08 00:35:33;;;;;;;4.60;2.93;;;4.90;99.90;;;;;;5211077;28;20203;-67
2021/05/08 00:38:04;;;;;;;5.40;3.10;;;4.80;99.90;;;;;;5210739;28;20228;-68
2021/05/08 00:40:36;;;;;;;4.20;3.10;;;4.70;99.90;;;;;;5210672;28;20210;-70
2021/05/08 00:43:07;;;;;;;4.57;3.00;;;4.70;99.90;;;;;;5210616;28;20582;-72
2021/05/08 00:45:39;;;;;;;4.20;2.80;;;4.60;99.90;;;;;;5210527;28;20202;-67
2021/05/08 00:48:13;;;;;;;3.73;3.10;;;4.50;99.90;;;;;;5210132;28;20202;-71
2021/05/08 00:50:44;;;;;;;4.10;3.00;;;4.40;99.90;;;;;;5210537;28;20662;-74
2021/05/08 00:53:16;;;;;;;4.63;3.30;;;4.40;99.90;;;;;;5210429;28;20217;-75
2021/05/08 00:55:47;;;;;;;4.47;2.83;;;4.30;99.90;;;;;;5210155;28;20214;-71
2021/05/08 00:58:19;;;;;;;3.93;3.00;;;4.30;99.90;;;;;;5210294;28;20202;-73
2021/05/08 01:00:54;;;;;;;3.93;3.30;;;4.20;99.90;;;;;;5176351;28;20209;-72
2021/05/08 01:03:26;;;;;;;3.63;2.90;;;4.20;99.90;;;;;;5210067;28;20233;-70
2021/05/08 01:05:57;;;;;;;3.90;3.03;;;4.20;99.90;;;;;;5210036;28;20209;-68
2021/05/08 01:08:30;;;;;;;4.03;3.00;;;4.20;99.90;;;;;;5209979;28;20621;-67
2021/05/08 01:11:02;;;;;;;4.00;3.00;;;4.20;99.90;;;;;;5210036;28;20203;-69
2021/05/08 01:13:33;;;;;;;3.73;3.20;;;4.10;99.90;;;;;;5210106;28;20587;-67
2021/05/08 01:16:05;;;;;;;4.50;3.53;;;4.20;99.90;;;;;;5210092;28;20202;-70
2021/05/08 01:18:36;;;;;;;4.57;3.27;;;4.20;99.90;;;;;;5209770;28;20655;-68
2021/05/08 01:21:12;;;;;;;7.00;3.70;;;4.20;99.90;;;;;;5209989;28;20657;-72
2021/05/08 01:23:43;;;;;;;4.60;3.70;;;4.20;99.90;;;;;;5209719;28;20216;-68
2021/05/08 01:26:15;;;;;;;3.67;3.27;;;4.20;99.90;;;;;;5191582;28;20198;-74
2021/05/08 01:28:47;;;;;;;4.23;3.30;;;4.20;99.90;;;;;;5209990;28;20687;-66
2021/05/08 01:31:18;;;;;;;6.83;3.97;;;4.20;99.90;;;;;;5209665;28;20209;-64
2021/05/08 01:33:49;;;;;;;7.00;4.20;;;4.20;99.90;;;;;;5209443;28;20707;-66
2021/05/08 01:36:21;;;;;;;4.57;4.00;;;4.20;99.90;;;;;;5209572;28;20206;-65
2021/05/08 01:38:54;;;;;;;5.47;4.10;;;4.20;99.90;;;;;;5209442;28;20202;-66
2021/05/08 01:41:25;;;;;;;4.17;3.60;;;4.20;99.90;;;;;;5209960;28;20613;-66
2021/05/08 01:43:57;;;;;;;6.07;4.50;;;4.10;99.90;;;;;;5209682;28;20213;-67
2021/05/08 01:46:28;;;;;;;4.77;3.97;;;4.10;99.90;;;;;;5209375;28;20217;-70
2021/05/08 01:49:05;;;;;;;5.40;4.10;;;4.00;99.90;;;;;;5209226;28;20684;-68
2021/05/08 01:51:36;;;;;;;5.07;3.93;;;4.00;99.90;;;;;;5209370;28;20214;-67
2021/05/08 01:54:08;;;;;;;6.13;3.87;;;4.00;99.90;;;;;;5209187;28;20226;-66
2021/05/08 01:56:39;;;;;;;5.60;4.03;;;3.90;99.90;;;;;;5209599;28;20206;-73
2021/05/08 01:59:13;;;;;;;8.07;4.47;;;3.90;99.90;;;;;;5209196;28;20213;-70
2021/05/08 02:01:45;;;;;;;5.23;3.87;;;3.80;99.90;;;;;;5209287;28;20220;-70
2021/05/08 02:04:17;;;;;;;6.30;4.57;;;3.80;99.90;;;;;;5209867;28;20202;-74
2021/05/08 02:06:53;;;;;;;4.30;3.70;;;3.70;99.90;;;;;;5210201;28;20206;-68
2021/05/08 02:09:24;;;;;;;6.30;4.70;;;3.70;99.90;;;;;;5211076;28;20276;-75
2021/05/08 02:11:56;;;;;;;5.10;4.00;;;3.60;99.90;;;;;;5212173;28;20209;-70
2021/05/08 02:14:28;;;;;;;5.30;3.83;;;3.60;99.90;;;;;;5209478;28;20237;-74
2021/05/08 02:16:59;;;;;;;5.80;4.33;;;3.60;99.90;;;;;;5210403;28;20198;-74
2021/05/08 02:19:30;;;;;;;6.47;4.60;;;3.50;99.90;;;;;;5210496;28;20260;-73
2021/05/08 02:22:02;;;;;;;6.30;4.73;;;3.50;99.90;;;;;;5210473;28;20221;-70
2021/05/08 02:24:33;;;;;;;10.47;5.63;;;3.40;99.90;;;;;;5209427;28;20214;-68
2021/05/08 02:27:05;;;;;;;8.33;5.80;;;3.40;99.90;;;;;;5209384;28;20206;-66
2021/05/08 02:29:36;;;;;;;7.57;5.40;;;3.40;99.90;;;;;;5208776;28;20210;-65
2021/05/08 02:32:08;;;;;;;11.53;5.87;;;3.50;99.90;;;;;;5208601;28;20566;-65
2021/05/08 02:34:40;;;;;;;8.93;5.70;;;3.50;99.90;;;;;;5208009;28;20226;-66
2021/05/08 02:37:11;;;;;;;9.73;6.20;;;3.40;99.90;;;;;;5207649;28;20218;-66
2021/05/08 02:39:42;;;;;;;9.67;6.10;;;3.50;99.90;;;;;;5208669;28;20206;-65
2021/05/08 02:42:14;;;;;;;10.07;6.07;;;3.50;99.90;;;;;;5208338;28;20201;-66
2021/05/08 02:44:45;;;;;;;10.37;6.03;;;3.50;99.90;;;;;;5208529;28;20206;-65
2021/05/08 02:47:17;;;;;;;8.33;5.53;;;3.50;99.90;;;;;;5208556;28;20213;-66
2021/05/08 02:49:51;;;;;;;10.57;5.40;;;3.50;99.90;;;;;;5208023;28;20229;-65
2021/05/08 02:52:22;;;;;;;7.47;5.53;;;3.50;99.90;;;;;;5208653;28;20213;-65
2021/05/08 02:54:55;;;;;;;10.70;5.20;;;3.50;99.90;;;;;;5208304;28;20589;-67
2021/05/08 02:57:26;;;;;;;7.33;5.33;;;3.50;99.90;;;;;;5208360;28;20233;-66
2021/05/08 02:59:58;;;;;;;7.37;5.37;;;3.50;99.90;;;;;;5208144;28;20571;-65
2021/05/08 03:02:29;;;;;;;8.40;5.87;;;3.50;99.90;;;;;;5207909;28;20217;-65
2021/05/08 03:05:03;;;;;;;7.53;5.53;;;3.50;99.90;;;;;;5207764;28;20213;-64
2021/05/08 03:07:35;;;;;;;10.93;5.57;;;3.60;99.90;;;;;;5207860;28;20253;-65
2021/05/08 03:10:08;;;;;;;6.60;5.30;;;3.50;99.90;;;;;;5208158;28;20673;-65
2021/05/08 03:12:39;;;;;;;6.27;4.60;;;3.50;99.90;;;;;;5207839;28;20203;-64
2021/05/08 03:15:11;;;;;;;8.80;5.10;;;3.50;99.90;;;;;;5207415;28;20234;-64
2021/05/08 03:17:43;;;;;;;8.23;5.20;;;3.50;99.90;;;;;;5207751;28;20206;-69
2021/05/08 03:20:14;;;;;;;7.00;4.63;;;3.60;99.90;;;;;;5207494;28;20297;-65
2021/05/08 03:22:46;;;;;;;6.57;4.63;;;3.60;99.90;;;;;;5207688;28;20206;-66
2021/05/08 03:25:17;;;;;;;5.60;4.40;;;3.60;99.90;;;;;;5207270;28;20205;-65
2021/05/08 03:27:53;;;;;;;5.17;3.87;;;3.60;99.90;;;;;;5207344;28;20206;-69
2021/05/08 03:30:24;;;;;;;5.47;4.07;;;3.70;99.90;;;;;;5207538;28;20229;-64
2021/05/08 03:32:56;;;;;;;6.03;4.90;;;3.80;99.90;;;;;;5207558;28;20668;-66
2021/05/08 03:35:27;;;;;;;7.40;4.03;;;3.80;99.90;;;;;;5207247;28;20284;-65
2021/05/08 03:37:58;;;;;;;5.50;4.60;;;3.90;99.90;;;;;;5207192;28;20202;-64
2021/05/08 03:40:30;;;;;;;5.13;4.00;;;4.00;99.90;;;;;;5207281;28;20575;-65
2021/05/08 03:43:01;;;;;;;6.13;4.30;;;4.10;99.90;;;;;;5189863;28;20202;-65
2021/05/08 03:45:35;;;;;;;4.50;4.00;;;4.20;99.90;;;;;;5207421;28;20623;-65
2021/05/08 03:48:08;;;;;;;5.77;3.93;;;4.30;99.90;;;;;;5206944;28;20242;-67
2021/05/08 03:50:39;;;;;;;7.30;4.43;;;4.40;99.90;;;;;;5206904;28;20296;-63
2021/05/08 03:53:10;;;;;;;5.37;4.00;;;4.50;99.90;;;;;;5207183;28;20229;-67
2021/05/08 03:55:42;;;;;;;5.93;3.87;;;4.50;99.90;;;;;;5207016;28;20237;-66
2021/05/08 03:58:13;;;;;;;6.17;4.20;;;4.60;99.90;;;;;;5207313;28;20562;-65
2021/05/08 04:00:45;;;;;;;7.27;4.47;;;4.70;99.90;;;;;;5207174;28;20568;-67
2021/05/08 04:03:16;;;;;;;7.03;4.40;;;4.70;99.90;;;;;;5189462;28;20688;-66
2021/05/08 04:05:48;;;;;;;8.57;5.17;;;4.80;99.90;;;;;;5206748;28;20585;-67
2021/05/08 04:08:20;;;;;;;7.73;4.60;;;4.80;99.90;;;;;;5206562;28;20241;-65
2021/05/08 04:10:51;;;;;;;8.83;4.80;;;4.70;99.90;;;;;;5207027;28;20205;-71
2021/05/08 04:13:22;;;;;;;5.73;4.40;;;4.80;99.90;;;;;;5206875;28;20325;-69
2021/05/08 04:15:54;;;;;;;6.00;4.43;;;4.70;99.90;;;;;;5206818;28;20233;-68
2021/05/08 04:18:25;;;;;;;9.60;4.70;;;4.80;99.90;;;;;;5207417;28;20248;-65
2021/05/08 04:20:57;;;;;;;7.40;5.20;;;4.80;99.90;;;;;;5206672;28;20206;-76
2021/05/08 04:23:28;;;;;;;5.67;4.33;;;4.80;99.90;;;;;;5206746;28;20631;-76
2021/05/08 04:26:00;;;;;;;7.30;4.97;;;4.80;99.90;;;;;;5206936;28;20679;-77
2021/05/08 04:28:31;;;;;;;8.90;5.13;;;4.80;99.90;;;;;;5189254;28;20582;-77
2021/05/08 04:31:03;;;;;;;8.63;5.80;;;4.90;99.90;;;;;;5207024;28;20210;-69
2021/05/08 04:33:34;;;;;;;8.37;5.00;;;4.90;99.90;;;;;;5206898;28;20202;-64
2021/05/08 04:36:05;;;;;;;8.30;5.00;;;4.90;99.90;;;;;;5206547;28;20268;-66
2021/05/08 04:38:40;;;;;;;7.27;5.40;;;5.00;99.90;;;;;;5206987;28;20208;-69
2021/05/08 04:41:13;;;;;;;8.73;5.40;;;5.00;99.90;;;;;;5207364;28;20329;-70
2021/05/08 04:43:44;;;;;;;9.80;5.43;;;5.00;99.90;;;;;;5207364;28;20567;-75
2021/05/08 04:46:23;;;;;;;7.40;5.73;;;5.00;99.90;;;;;;5207352;28;20310;-70
2021/05/08 04:48:55;;;;;;;8.43;5.70;;;5.00;99.90;;;;;;5206791;28;20198;-75
2021/05/08 04:51:26;;;;;;;6.90;5.70;;;4.90;99.90;;;;;;5206916;28;20217;-70
2021/05/08 04:53:58;;;;;;;8.90;5.57;;;4.90;99.90;;;;;;5188952;28;20222;-70
2021/05/08 04:56:29;;;;;;;7.93;5.33;;;4.90;99.90;;;;;;5206628;28;20213;-65
2021/05/08 04:59:01;;;;;;;7.73;5.67;;;4.90;99.90;;;;;;5206439;28;20205;-71
2021/05/08 05:01:32;;;;;;;6.80;5.20;;;4.90;99.90;;;;;;5208893;28;20210;-66
2021/05/08 05:04:03;;;;;;;7.83;5.40;;;5.00;99.90;;;;;;5210198;28;20202;-70
2021/05/08 05:06:35;;;;;;;7.73;6.03;;;5.20;99.90;;;;;;5210140;28;20213;-67
2021/05/08 05:09:06;;;;;;;8.27;6.10;;;5.40;99.90;;;;;;5210595;28;20546;-66
2021/05/08 05:11:38;;;;;;;8.97;6.13;;;5.70;99.90;;;;;;5210597;28;20210;-70
2021/05/08 05:14:09;;;;;;;8.97;6.27;;;5.90;99.90;;;;;;5211563;28;20234;-76
2021/05/08 05:16:40;;;;;;;9.50;6.83;;;6.10;99.90;;;;;;5211668;28;20539;-75
2021/05/08 05:19:12;;;;;;;8.80;6.83;;;6.40;99.90;;;;;;5211140;28;20241;-67
2021/05/08 05:21:44;;;;;;;10.57;7.07;;;6.60;99.90;;;;;;5211546;28;20325;-75
2021/05/08 05:24:15;;;;;;;10.40;7.30;;;6.70;99.90;;;;;;5210171;28;20661;-75
2021/05/08 05:26:46;;;;;;;8.97;6.33;;;6.90;99.90;;;;;;5210344;28;20213;-69
2021/05/08 05:29:18;;;;;;;10.60;6.43;;;7.10;99.90;;;;;;5209731;28;20206;-72
2021/05/08 05:31:49;;;;;;;8.00;5.90;;;7.50;99.90;;;;;;5209891;28;20274;-75
2021/05/08 05:34:21;;;;;;;6.83;5.43;;;7.60;99.90;;;;;;5209509;28;20225;-73
2021/05/08 05:36:54;;;;;;;8.60;5.77;;;7.70;99.90;;;;;;5209638;28;20210;-67
2021/05/08 05:39:26;;;;;;;10.60;6.20;;;7.80;99.90;;;;;;5210127;28;20214;-69
2021/05/08 05:41:57;;;;;;;10.27;6.50;;;7.90;99.90;;;;;;5209573;28;20206;-71
2021/05/08 05:44:29;;;;;;;7.23;5.13;;;8.10;99.90;;;;;;5209563;28;20665;-68
2021/05/08 05:47:00;;;;;;;6.73;4.30;;;8.20;99.90;;;;;;5209338;28;20198;-66
2021/05/08 05:49:32;;;;;;;10.10;5.50;;;8.30;99.90;;;;;;5209212;28;20210;-65
2021/05/08 05:52:03;;;;;;;8.73;5.30;;;8.50;99.90;;;;;;5209148;28;20202;-67
2021/05/08 05:54:35;;;;;;;6.87;5.07;;;8.60;99.90;;;;;;5209059;28;20221;-66
2021/05/08 05:57:06;;;;;;;7.10;5.20;;;8.80;99.90;;;;;;5209277;28;20225;-66
2021/05/08 05:59:38;;;;;;;6.60;4.73;;;9.00;99.90;;;;;;5209221;28;20202;-66
2021/05/08 06:02:10;;;;;;;6.77;4.20;;;9.40;99.90;;;;;;5209130;28;20206;-65
2021/05/08 06:04:42;;;;;;;5.77;4.20;;;9.80;99.90;;;;;;5208649;28;20252;-66
2021/05/08 06:07:13;;;;;;;4.90;3.07;;;9.90;99.90;;;;;;5208838;28;20682;-65
2021/05/08 06:09:45;;;;;;;5.00;3.30;;;9.50;99.90;;;;;;5208780;28;20221;-67
2021/05/08 06:12:20;;;;;;;3.83;3.13;;;9.10;99.90;;;;;;5208987;28;20600;-67
2021/05/08 06:14:51;;;;;;;6.27;2.97;;;8.90;99.90;;;;;;5208743;28;20593;-68
2021/05/08 06:17:22;;;;;;;6.30;2.73;;;8.80;99.90;;;;;;5208924;28;20617;-66
2021/05/08 06:19:55;;;;;;;3.83;2.90;;;8.70;99.90;;;;;;5208634;28;20206;-68
2021/05/08 06:22:26;;;;;;;6.57;4.07;;;8.60;99.90;;;;;;5208722;28;20214;-68
2021/05/08 06:24:58;;;;;;;6.70;2.63;;;8.50;99.90;;;;;;5208738;28;20210;-68
2021/05/08 06:27:29;;;;;;;5.77;2.30;;;8.50;99.90;;;;;;5208899;28;20209;-66
2021/05/08 06:30:02;;;;;;;3.13;2.00;;;8.50;99.90;;;;;;5208374;28;20284;-66
2021/05/08 06:32:33;;;;;;;4.57;2.47;;;8.40;99.90;;;;;;5208959;28;20252;-75
2021/05/08 06:35:05;;;;;;;4.43;2.43;;;8.40;99.90;;;;;;5208686;28;20226;-73
2021/05/08 06:37:37;;;;;;;3.30;2.43;;;8.30;99.90;;;;;;5208316;28;20210;-70
2021/05/08 06:40:09;;;;;;;8.87;3.03;;;8.20;99.90;;;;;;5208397;28;20210;-75
2021/05/08 06:42:40;;;;;;;5.10;3.30;;;8.10;99.90;;;;;;5208479;28;20658;-73
2021/05/08 06:45:12;;;;;;;5.23;3.53;;;8.10;99.90;;;;;;5208469;28;20685;-70
2021/05/08 06:47:43;;;;;;;5.87;3.07;;;8.00;99.90;;;;;;5208207;28;20213;-67
2021/05/08 06:50:15;;;;;;;3.20;2.57;;;8.10;99.90;;;;;;5207681;28;20206;-70
2021/05/08 06:52:46;;;;;;;5.17;2.43;;;8.10;99.90;;;;;;5207943;28;20313;-73
2021/05/08 06:55:18;;;;;;;4.50;2.43;;;8.20;99.90;;;;;;5207900;28;20600;-73
2021/05/08 06:57:50;;;;;;;3.10;2.20;;;8.20;99.90;;;;;;5208034;28;20213;-74
2021/05/08 07:00:22;;;;;;;6.20;2.80;;;8.20;99.90;;;;;;5207608;28;20225;-69
2021/05/08 07:02:53;;;;;;;5.10;2.90;;;8.70;99.90;;;;;;5207934;28;20198;-72
2021/05/08 07:05:25;;;;;;;3.70;2.50;;;10.40;99.90;;;;;;5207571;28;20210;-73
2021/05/08 07:08:08;;;;;;;3.70;2.03;;;11.60;99.90;;;;;;5207628;28;20234;-77
2021/05/08 07:10:50;;;;;;;4.33;2.10;;;13.10;99.90;;;;;;5207854;28;20547;-68
2021/05/08 07:13:21;;;;;;;4.37;2.07;;;13.90;99.90;;;;;;5207919;28;20206;-71
2021/05/08 07:15:57;;;;;;;2.63;1.83;;;14.20;99.90;;;;;;5207740;28;20259;-67
2021/05/08 07:18:28;;;;;;;8.53;2.43;;;13.90;99.90;;;;;;5207647;28;20206;-70
2021/05/08 07:21:00;;;;;;;4.20;1.70;;;13.40;99.90;;;;;;5207338;28;20210;-68
2021/05/08 07:23:32;;;;;;;7.60;2.43;;;13.40;99.90;;;;;;5207198;28;20210;-71
2021/05/08 07:26:03;;;;;;;5.77;2.30;;;13.60;99.90;;;;;;5207703;28;20238;-68
2021/05/08 07:28:35;;;;;;;4.20;1.80;;;13.90;99.90;;;;;;5208039;28;20233;-69
2021/05/08 07:31:06;;;;;;;8.70;2.00;;;14.20;99.90;;;;;;5207561;28;20201;-70
2021/05/08 07:33:37;;;;;;;7.77;2.20;;;14.30;99.90;;;;;;5207391;28;20716;-66
2021/05/08 07:36:09;;;;;;;6.13;1.77;;;14.50;99.90;;;;;;5207056;28;20320;-66
2021/05/08 07:38:40;;;;;;;4.33;2.17;;;14.50;99.90;;;;;;5207599;28;20229;-71
2021/05/08 07:41:13;;;;;;;5.10;1.80;;;14.20;99.90;;;;;;5207572;28;20576;-68
2021/05/08 07:43:44;;;;;;;3.73;1.87;;;14.00;99.90;;;;;;5190117;28;20225;-69
2021/05/08 07:46:17;;;;;;;4.20;1.63;;;14.10;99.90;;;;;;5207733;28;20213;-69
2021/05/08 07:48:49;;;;;;;5.33;1.80;;;14.00;99.90;;;;;;5207271;28;20242;-67
2021/05/08 07:51:21;;;;;;;5.13;1.83;;;13.60;99.90;;;;;;5206934;28;20209;-66
2021/05/08 07:53:52;;;;;;;3.80;1.60;;;13.10;99.90;;;;;;5207061;28;20220;-65
2021/05/08 07:56:23;;;;;;;4.90;1.93;;;12.80;99.90;;;;;;5207004;28;20213;-66
2021/05/08 07:58:55;;;;;;;3.50;1.60;;;12.70;99.90;;;;;;5207241;28;20220;-66
2021/05/08 08:01:26;;;;;;;2.87;1.73;;;12.90;99.90;;;;;;5207127;28;20213;-66
2021/05/08 08:03:58;;;;;;;5.97;1.60;;;13.10;99.90;;;;;;5206903;28;20210;-67
2021/05/08 08:06:31;;;;;;;4.70;1.80;;;13.30;99.90;;;;;;5206814;28;20202;-69
2021/05/08 08:09:03;;;;;;;4.40;2.00;;;13.60;99.90;;;;;;5206767;28;20608;-70
2021/05/08 08:11:36;;;;;;;4.13;1.70;;;13.70;99.90;;;;;;5206782;28;20209;-69
2021/05/08 08:14:07;;;;;;;3.13;1.80;;;13.50;99.90;;;;;;5207185;28;20209;-68
2021/05/08 08:16:39;;;;;;;4.53;1.70;;;13.10;99.90;;;;;;5206873;28;20206;-68
2021/05/08 08:19:10;;;;;;;3.70;1.70;;;12.60;99.90;;;;;;5206885;28;20202;-70
2021/05/08 08:21:41;;;;;;;7.10;1.80;;;12.10;99.90;;;;;;5206585;28;20228;-69
2021/05/08 08:24:13;;;;;;;4.07;1.70;;;11.60;99.90;;;;;;5206956;28;20592;-72
2021/05/08 08:26:44;;;;;;;7.23;1.93;;;11.30;99.90;;;;;;5206575;28;20206;-67
2021/05/08 08:29:16;;;;;;;4.63;1.90;;;11.30;99.90;;;;;;5206785;28;20208;-66
2021/05/08 08:31:47;;;;;;;4.43;1.80;;;11.20;99.90;;;;;;5199819;28;20199;-68
2021/05/08 08:34:19;;;;;;;6.40;2.03;;;11.10;99.90;;;;;;5148556;28;20238;-70
2021/05/08 08:36:50;;;;;;;3.87;1.80;;;11.00;99.90;;;;;;5168718;28;20675;-66
2021/05/08 08:39:22;;;;;;;5.67;2.53;;;10.90;99.90;;;;;;5169869;28;20410;-67
2021/05/08 08:41:54;;;;;;;4.43;2.07;;;11.10;99.90;;;;;;5169812;28;20219;-67
2021/05/08 08:44:25;;;;;;;5.00;1.83;;;11.40;99.90;;;;;;5169867;28;20255;-70
2021/05/08 08:46:57;;;;;;;4.40;1.97;;;11.70;99.90;;;;;;5169758;28;20558;-72
2021/05/08 08:49:29;;;;;;;5.57;1.70;;;11.90;99.90;;;;;;5152590;28;20675;-66
2021/05/08 08:52:00;;;;;;;3.47;1.60;;;11.90;99.90;;;;;;5169761;28;20673;-69
2021/05/08 08:54:32;;;;;;;3.53;1.70;;;11.90;99.90;;;;;;5169609;28;20227;-76
2021/05/08 08:57:04;;;;;;;5.73;2.07;;;11.80;99.90;;;;;;5169575;28;20208;-66
2021/05/08 08:59:38;;;;;;;6.67;2.17;;;11.70;99.90;;;;;;5169355;28;20525;-70
2021/05/08 09:02:09;;;;;;;4.80;1.80;;;11.70;99.90;;;;;;5181607;28;20203;-68
2021/05/08 09:04:41;;;;;;;3.50;1.93;;;11.80;99.90;;;;;;5189417;28;20213;-65
2021/05/08 09:07:16;;;;;;;5.80;2.20;;;11.90;99.90;;;;;;5183758;28;20703;-66
2021/05/08 09:09:51;;;;;;;5.83;2.23;;;11.90;99.90;;;;;;5172028;28;20201;-66
2021/05/08 09:12:30;;;;;;;6.77;2.00;;;11.80;99.90;;;;;;5188583;28;20194;-66
2021/05/08 09:15:01;;;;;;;6.57;2.20;;;11.70;99.90;;;;;;5189215;28;20214;-65
2021/05/08 09:17:33;;;;;;;5.80;2.10;;;11.40;99.90;;;;;;5168279;28;20512;-66
2021/05/08 09:23:43;;;;;;;6.27;2.53;;;11.30;99.90;;;;;;5065749;29;20203;-68
2021/05/08 09:26:14;;;;;;;6.43;2.03;;;11.30;99.90;;;;;;5065725;29;20199;-69
2021/05/08 09:28:59;;;;;;;6.67;2.23;;;11.60;99.90;;;;;;4955717;29;20372;-66
2021/05/08 09:32:04;;;;;;;6.97;2.27;;;12.10;99.90;;;;;;4934163;29;20201;-67
2021/05/08 09:35:13;;;;;;;5.00;1.90;;;12.40;99.90;;;;;;4877213;29;20360;-67
2021/05/08 09:41:54;;;;;;;2.70;1.53;;;12.30;99.90;;;;;;4859545;29;20566;-67
2021/05/08 09:44:57;;;;;;;4.23;1.90;;;12.20;99.90;;;;;;4955749;29;20971;-70
2021/05/08 09:47:28;;;;;;;4.93;1.97;;;12.10;99.90;;;;;;5064650;29;20210;-66
2021/05/08 09:50:00;;;;;;;6.57;1.63;;;12.10;99.90;;;;;;5065560;29;20294;-68
2021/05/08 09:56:47;;;;;;;4.17;1.50;;;11.70;99.90;;;;;;5064255;29;20222;-66
2021/05/08 09:59:27;;;;;;;4.83;1.43;;;11.30;99.90;;;;;;5088672;28;20203;-67
2021/05/08 10:02:02;;;;;;;2.43;1.10;;;11.20;99.90;;;;;;5188099;28;20219;-68
2021/05/08 10:04:43;;;;;;;3.10;1.27;;;11.20;99.90;;;;;;5187978;28;20204;-67
2021/05/08 10:07:17;;;;;;;2.30;1.00;;;11.10;99.90;;;;;;5186199;28;20241;-66
2021/05/08 10:09:51;;;;;;;3.93;0.90;;;11.10;99.90;;;;;;5185663;28;20191;-67
2021/05/08 10:12:24;;;;;;;1.63;0.77;;;11.30;99.90;;;;;;5185923;28;20294;-65
2021/05/08 10:14:57;;;;;;;1.43;0.93;;;11.60;99.90;;;;;;5159341;28;20705;-66
2021/05/08 10:17:30;;;;;;;6.03;1.30;;;11.60;99.90;;;;;;5184808;28;20215;-67
2021/05/08 10:20:10;;;;;;;3.50;2.17;;;11.60;99.90;;;;;;5186135;28;20538;-66
2021/05/08 10:22:54;;;;;;;7.53;1.90;;;11.10;99.90;;;;;;5186391;28;20202;-67
2021/05/08 10:25:26;;;;;;;5.00;2.70;;;10.50;99.90;;;;;;5185697;28;20201;-63
2021/05/08 10:27:58;;;;;;;5.40;2.80;;;9.80;99.90;;;;;;5186495;28;20219;-67
2021/05/08 10:30:41;;;;;;;5.60;2.63;;;9.20;99.90;;;;;;5185914;28;20199;-66
2021/05/08 10:33:19;;;;;;;4.40;2.23;;;8.60;99.90;;;;;;5186362;28;20199;-66
2021/05/08 10:35:52;;;;;;;4.70;2.50;;;8.10;99.90;;;;;;5186252;28;20268;-67
2021/05/08 10:38:30;;;;;;;4.17;2.30;;;7.90;99.90;;;;;;5185937;28;20548;-68
2021/05/08 10:41:03;;;;;;;5.07;2.67;;;7.80;99.90;;;;;;5174142;28;20785;-67
2021/05/08 10:43:54;;;;;;;6.67;2.70;;;7.80;99.90;;;;;;5185510;28;20186;-70
2021/05/08 10:46:28;;;;;;;3.50;2.50;;;7.90;99.90;;;;;;5183333;28;20213;-66
2021/05/08 10:49:06;;;;;;;5.80;2.30;;;8.00;99.90;;;;;;5185241;28;20207;-70
2021/05/08 10:55:48;;;;;;;7.27;3.30;;;8.50;99.90;;;;;;5185422;28;20242;-66
2021/05/08 10:58:22;;;;;;;9.00;3.30;;;8.80;99.90;;;;;;5169459;28;20195;-71
2021/05/08 11:00:57;;;;;;;5.20;2.90;;;9.10;99.90;;;;;;5186737;28;20198;-68
2021/05/08 11:03:30;;;;;;;4.23;2.40;;;9.30;99.90;;;;;;5186536;28;20201;-68
2021/05/08 11:06:04;;;;;;;5.93;2.30;;;9.50;99.90;;;;;;5185247;28;20187;-70
2021/05/08 11:13:15;;;;;;;7.07;2.53;;;9.70;99.90;;;;;;5146380;28;20195;-68
2021/05/08 11:15:49;;;;;;;4.13;2.60;;;9.90;99.90;;;;;;5146465;28;20592;-68
2021/05/08 11:18:30;;;;;;;6.87;3.00;;;10.20;99.90;;;;;;5146613;28;20219;-69
2021/05/08 11:21:26;;;;;;;4.37;2.57;;;10.20;99.90;;;;;;5146252;28;20290;-69
2021/05/08 11:25:33;;;;;;;5.20;2.37;;;10.20;99.90;;;;;;5144040;28;20196;-67
2021/05/08 11:28:07;;;;;;;4.43;1.70;;;10.00;99.90;;;;;;5143597;28;20208;-74
2021/05/08 11:30:54;;;;;;;2.93;1.73;;;9.70;99.90;;;;;;5143701;28;20328;-73
2021/05/08 11:33:26;;;;;;;4.90;3.10;;;9.40;99.90;;;;;;5143888;28;20215;-72
2021/05/08 11:36:04;;;;;;;6.37;2.80;;;9.10;99.90;;;;;;5143873;28;20224;-72
2021/05/08 11:42:31;;;;;;;3.53;1.90;;;8.60;99.90;;;;;;5143834;28;20203;-73
2021/05/08 11:45:04;;;;;;;5.07;2.00;;;8.20;99.90;;;;;;5143467;28;20219;-72
2021/05/08 11:47:36;;;;;;;2.97;1.40;;;8.10;99.90;;;;;;5143503;28;20193;-71
2021/05/08 11:50:11;;;;;;;2.33;1.20;;;7.90;99.90;;;;;;5143447;28;20305;-72
2021/05/08 11:52:47;;;;;;;1.90;1.20;;;7.80;99.90;;;;;;5143488;28;20192;-72
2021/05/08 11:55:20;;;;;;;4.50;1.50;;;7.70;99.90;;;;;;5144443;28;20232;-72
2021/05/08 11:58:00;;;;;;;3.70;1.53;;;7.70;99.90;;;;;;5144302;28;20196;-72
2021/05/08 12:00:33;;;;;;;2.13;1.40;;;7.50;99.90;;;;;;5146679;28;20558;-70
2021/05/08 12:03:07;;;;;;;5.47;1.93;;;7.40;99.90;;;;;;5145897;28;20192;-71
2021/05/08 12:05:41;;;;;;;5.80;2.20;;;7.20;99.90;;;;;;5146007;28;20250;-69
2021/05/08 12:08:20;;;;;;;8.63;3.93;;;7.20;99.90;;;;;;5144704;28;20563;-70
2021/05/08 12:10:52;;;;;;;7.30;3.60;;;7.30;99.90;;;;;;5153709;28;20280;-67
2021/05/08 12:13:28;;;;;;;6.67;3.00;;;7.50;99.90;;;;;;5190418;28;20278;-66
2021/05/08 12:16:01;;;;;;;4.37;2.23;;;8.00;99.90;;;;;;5190139;28;20218;-67
2021/05/08 12:18:33;;;;;;;4.20;1.80;;;8.50;99.90;;;;;;5190371;28;20238;-69
2021/05/08 12:21:11;;;;;;;1.37;0.90;;;9.00;99.90;;;;;;5190132;28;20247;-73
2021/05/08 12:23:43;;;;;;;2.60;1.30;;;9.40;99.90;;;;;;5189968;28;20194;-71
2021/05/08 12:26:16;;;;;;;3.43;1.53;;;9.60;99.90;;;;;;5190004;28;20202;-74
2021/05/08 12:28:49;;;;;;;3.53;1.63;;;9.90;99.90;;;;;;5190476;28;20198;-70
2021/05/08 12:31:29;;;;;;;4.13;2.20;;;10.10;99.90;;;;;;5189616;28;20195;-70
2021/05/08 12:34:09;;;;;;;4.90;2.67;;;10.20;99.90;;;;;;5190066;28;20546;-73
2021/05/08 12:40:36;;;;;;;8.23;3.23;;;10.80;99.90;;;;;;5189756;28;20206;-71
2021/05/08 12:43:07;;;;;;;6.47;2.10;;;10.60;99.90;;;;;;5189718;28;20191;-73
2021/05/08 12:46:00;;;;;;;2.83;1.50;;;9.80;99.90;;;;;;5189909;28;20638;-70
2021/05/08 12:48:39;;;;;;;4.03;1.57;;;9.10;99.90;;;;;;5067908;29;20203;-71
2021/05/08 12:51:30;;;;;;;3.03;1.70;;;8.70;99.90;;;;;;5067799;29;20210;-71
2021/05/08 12:58:13;;;;;;;7.07;1.73;;;8.30;99.90;;;;;;5067933;29;20187;-71
2021/05/08 13:00:49;;;;;;;6.63;2.10;;;8.30;99.90;;;;;;5067654;29;20215;-71
2021/05/08 13:03:48;;;;;;;4.77;2.00;;;8.40;99.90;;;;;;5067566;29;20202;-68
2021/05/08 13:06:25;;;;;;;6.90;2.33;;;8.50;99.90;;;;;;5064291;29;20214;-70
2021/05/08 13:08:57;;;;;;;6.83;3.27;;;8.40;99.90;;;;;;5066127;29;20198;-73
2021/05/08 13:11:32;;;;;;;13.33;4.10;;;8.30;99.90;;;;;;5066418;29;20323;-68
2021/05/08 13:14:25;;;;;;;11.00;4.07;;;7.90;99.90;;;;;;5065969;29;20719;-69
2021/05/08 13:16:59;;;;;;;8.37;3.40;;;7.80;99.90;;;;;;5066270;29;20209;-69
2021/05/08 13:19:30;;;;;;;10.23;3.77;;;7.60;99.90;;;;;;5067227;29;20233;-68
2021/05/08 13:25:48;;;;;;;10.40;3.53;;;7.50;99.90;;;;;;5135588;28;20205;-69
2021/05/08 13:28:20;;;;;;;7.07;3.93;;;7.60;99.90;;;;;;5186569;28;20206;-69
2021/05/08 13:30:51;;;;;;;5.90;3.90;;;7.80;99.90;;;;;;5187800;28;20626;-67
2021/05/08 13:33:22;;;;;;;6.93;3.73;;;8.20;99.90;;;;;;5184823;28;20558;-68
2021/05/08 13:35:54;;;;;;;6.40;4.00;;;8.50;99.90;;;;;;5187239;28;20304;-74
2021/05/08 13:42:14;;;;;;;4.47;3.50;;;9.30;99.90;;;;;;5186852;28;20680;-69
2021/05/08 13:44:45;;;;;;;7.47;3.90;;;9.70;99.90;;;;;;5187112;28;20540;-69
2021/05/08 13:47:23;;;;;;;8.27;3.80;;;9.90;99.90;;;;;;5186796;28;20199;-64
2021/05/08 13:49:57;;;;;;;8.80;3.83;;;10.00;99.90;;;;;;5186406;28;20194;-66
2021/05/08 13:52:31;;;;;;;8.30;4.10;;;10.20;99.90;;;;;;5186076;28;20689;-68
2021/05/08 13:55:05;;;;;;;11.37;4.97;;;10.20;99.90;;;;;;5186213;28;20254;-67
2021/05/08 13:57:50;;;;;;;7.83;4.87;;;10.40;99.90;;;;;;5186725;28;20585;-52
2021/05/08 14:00:22;;;;;;;11.83;4.93;;;10.50;99.90;;;;;;5186402;28;20245;-64
2021/05/08 14:02:53;;;;;;;10.70;5.03;;;10.40;99.90;;;;;;5184136;28;20535;-70
2021/05/08 14:05:25;;;;;;;15.53;5.93;;;10.10;99.90;;;;;;5184350;28;20201;-68